sensor_id;sensor_type;location;lat;lon;timestamp;temperature;humidity
44063;DHT22;29727;47.606;19.130;2023-06-14T06:17:29;17.80;74.20
44063;DHT22;29727;47.606;19.130;2023-06-14T06:19:55;17.90;74.90
44063;DHT22;29727;47.606;19.130;2023-06-14T06:22:21;17.90;75.30
44063;DHT22;29727;47.606;19.130;2023-06-14T06:24:47;18.10;75.10
44063;DHT22;29727;47.606;19.130;2023-06-14T06:27:12;18.20;72.90
44063;DHT22;29727;47.606;19.130;2023-06-14T06:29:39;18.30;72.20
44063;DHT22;29727;47.606;19.130;2023-06-14T06:32:05;18.30;72.10
44063;DHT22;29727;47.606;19.130;2023-06-14T06:34:30;18.40;71.10
44063;DHT22;29727;47.606;19.130;2023-06-14T06:36:56;18.50;70.90
44063;DHT22;29727;47.606;19.130;2023-06-14T06:39:22;18.50;71.60
44063;DHT22;29727;47.606;19.130;2023-06-14T06:41:47;18.50;72.10
44063;DHT22;29727;47.606;19.130;2023-06-14T06:44:13;18.60;72.20
44063;DHT22;29727;47.606;19.130;2023-06-14T18:13:17;24.20;47.60
44063;DHT22;29727;47.606;19.130;2023-06-14T18:15:42;24.20;48.20
44063;DHT22;29727;47.606;19.130;2023-06-14T18:18:08;24.20;48.30
44063;DHT22;29727;47.606;19.130;2023-06-14T18:20:34;24.20;48.90
44063;DHT22;29727;47.606;19.130;2023-06-14T18:22:59;24.20;50.00
44063;DHT22;29727;47.606;19.130;2023-06-14T18:25:25;24.20;49.80
44063;DHT22;29727;47.606;19.130;2023-06-14T18:27:51;24.20;50.30
44063;DHT22;29727;47.606;19.130;2023-06-14T18:30:16;24.20;50.10
44063;DHT22;29727;47.606;19.130;2023-06-14T18:32:43;24.20;50.10
44063;DHT22;29727;47.606;19.130;2023-06-14T18:35:13;24.20;50.20
44063;DHT22;29727;47.606;19.130;2023-06-14T18:37:40;24.10;50.20
44063;DHT22;29727;47.606;19.130;2023-06-14T18:40:06;24.10;50.40
44063;DHT22;29727;47.606;19.130;2023-06-14T18:42:32;24.10;50.90
44063;DHT22;29727;47.606;19.130;2023-06-14T18:44:57;24.10;52.50
44063;DHT22;29727;47.606;19.130;2023-06-14T18:47:23;24.00;52.20
44063;DHT22;29727;47.606;19.130;2023-06-14T18:49:49;23.90;52.80
44063;DHT22;29727;47.606;19.130;2023-06-14T18:52:15;23.90;53.70
44063;DHT22;29727;47.606;19.130;2023-06-14T18:54:40;23.90;53.60
44063;DHT22;29727;47.606;19.130;2023-06-14T18:57:06;23.80;52.90
44063;DHT22;29727;47.606;19.130;2023-06-14T18:59:32;23.80;52.30
44063;DHT22;29727;47.606;19.130;2023-06-14T19:01:59;23.80;52.90
44063;DHT22;29727;47.606;19.130;2023-06-14T19:04:25;23.70;53.80
44063;DHT22;29727;47.606;19.130;2023-06-14T19:06:51;23.60;54.30
44063;DHT22;29727;47.606;19.130;2023-06-14T19:09:16;23.60;54.30
44063;DHT22;29727;47.606;19.130;2023-06-14T19:11:45;23.50;54.40
44063;DHT22;29727;47.606;19.130;2023-06-14T19:14:13;23.50;53.90
44063;DHT22;29727;47.606;19.130;2023-06-14T19:16:39;23.40;55.00
44063;DHT22;29727;47.606;19.130;2023-06-14T19:19:05;23.30;55.40
44063;DHT22;29727;47.606;19.130;2023-06-14T19:21:31;23.30;54.60
44063;DHT22;29727;47.606;19.130;2023-06-14T19:23:57;23.20;54.80
